Tony Lippman — WDC2428 — position and weather

sailwx.info

Track history (hours):
 
Tides and Currents Weather Stations Pressure Air Temp Water Temp Dewpoint Dewpoint Depression Visibility Wind Speed Wind Dir Waves Ship Positions

Tony Lippman

Owner: Florida Marine, LLC, Mandeville, LA. More information available from US FCC via Universal Licensing System and Coast Guard Vessel Documentation Center.

Last reported at 2017-Sep-25 13:29 UTC. Time now 2017-Sep-25 13:35 UTC.
Position N 31°50' W 091°21'.

Length 44 m; draft 2.6 m.

Type: Towing. MMSI: 366993020.

Date/timePositionNaut miles runAvg speedWind from/ knotsBaromVisibWave heightAir tempDewpointWater temp
2017-Sep-25 13:29N 31°50' W 091°21'3 7.4
2017-Sep-25 13:01N 31°51' W 091°17'5 8.5
2017-Sep-25 12:26N 31°54' W 091°12'4 9.4
2017-Sep-25 11:58N 31°58' W 091°11'4 7.0
2017-Sep-25 11:28N 31°59' W 091°07'4 8.6
2017-Sep-25 11:00N 32°02' W 091°04'4 8.1
2017-Sep-25 10:30N 32°06' W 091°06'2 4.6
2017-Sep-25 09:59N 32°08' W 091°04'3 6.1
2017-Sep-25 09:31N 32°08' W 091°01'4 8.5
2017-Sep-25 09:00N 32°12' W 090°59'4 8.6
2017-Sep-25 08:30N 32°16' W 090°58'4 8.4
2017-Sep-25 08:00N 32°19' W 090°54'3 6.0
2017-Sep-25 07:31N 32°21' W 090°57'3 5.6
2017-Sep-25 07:00N 32°22' W 091°00'4 7.4
2017-Sep-25 06:30N 32°25' W 091°01'4 8.4
2017-Sep-25 06:01N 32°27' W 091°05'4 7.4
2017-Sep-25 05:30N 32°31' W 091°07'4 7.9
2017-Sep-25 05:00N 32°35' W 091°07'4 8.1
2017-Sep-25 04:30N 32°38' W 091°09'  
2017-Sep-19 04:09N 31°57' W 091°11'1 8.5
2017-Sep-19 04:00N 31°58' W 091°11'4 8.3
2017-Sep-19 03:31N 31°59' W 091°06'4 8.4
2017-Sep-19 03:01N 32°03' W 091°03'4 8.1
2017-Sep-19 02:31N 32°06' W 091°06'3 5.1
2017-Sep-19 02:00N 32°08' W 091°03'3 6.9
2017-Sep-19 01:30N 32°10' W 091°00'5 9.8
2017-Sep-19 01:01N 32°14' W 090°59'4 7.7
2017-Sep-19 00:31N 32°17' W 090°56'3 6.8
2017-Sep-19 00:00N 32°20' W 090°55'4 8.1
2017-Sep-18 23:31N 32°21' W 090°59'4 7.4
2017-Sep-18 23:01N 32°25' W 090°60'4 8.3
2017-Sep-18 22:30N 32°27' W 091°04'4 7.8
2017-Sep-18 22:00N 32°30' W 091°07'4 8.5
2017-Sep-18 21:31N 32°34' W 091°06'4 8.3
2017-Sep-18 21:00N 32°37' W 091°09'0 0.0
2017-Sep-17 12:45N 32°37' W 091°09'1 5.0
2017-Sep-17 12:30N 32°36' W 091°08'2 4.8
2017-Sep-17 12:00N 32°34' W 091°07'2 4.3
2017-Sep-17 11:30N 32°32' W 091°06'3 5.5
2017-Sep-17 11:00N 32°30' W 091°07'3 5.0
2017-Sep-17 10:30N 32°28' W 091°06'2 4.9
2017-Sep-17 10:00N 32°26' W 091°03'3 5.1
2017-Sep-17 09:30N 32°25' W 091°00'2 4.2
2017-Sep-17 09:00N 32°23' W 090°60'2 4.2
2017-Sep-17 08:30N 32°21' W 090°60'3 5.0
2017-Sep-17 08:00N 32°21' W 090°57'3 5.1
2017-Sep-17 07:31N 32°20' W 090°54'3 5.2
2017-Sep-17 07:01N 32°18' W 090°56'4 7.1
2017-Sep-17 06:30N 32°15' W 090°58'2 4.3
2017-Sep-17 06:00N 32°13' W 090°59'2 4.7
2017-Sep-17 05:30N 32°11' W 090°60'2 4.5
2017-Sep-17 05:01N 32°09' W 091°00'2 4.4
2017-Sep-17 04:30N 32°07' W 091°02'2 3.5
2017-Sep-17 03:58N 32°08' W 091°04'2 3.2
2017-Sep-17 03:30N 32°08' W 091°06'5 4.1
2017-Sep-17 02:15N 32°03' W 091°03'2 5.4
2017-Sep-17 01:54N 32°02' W 091°04'  
Track history (hours):
 
Tides and Currents Weather Stations Pressure Air Temp Water Temp Dewpoint Dewpoint Depression Visibility Wind Speed Wind Dir Waves Ship Positions

Tony Lippman

Owner: Florida Marine, LLC, Mandeville, LA. More information available from US FCC via Universal Licensing System and Coast Guard Vessel Documentation Center.

Last reported at 2017-Sep-25 13:29 UTC. Time now 2017-Sep-25 13:35 UTC.
Position N 31°50' W 091°21'.

Length 44 m; draft 2.6 m.

Type: Towing. MMSI: 366993020.

Date/timePositionNaut miles runAvg speedWind from/ knotsBaromVisibWave heightAir tempDewpointWater temp
2017-Sep-25 13:29N 31°50' W 091°21'3 7.4
2017-Sep-25 13:01N 31°51' W 091°17'5 8.5
2017-Sep-25 12:26N 31°54' W 091°12'4 9.4
2017-Sep-25 11:58N 31°58' W 091°11'4 7.0
2017-Sep-25 11:28N 31°59' W 091°07'4 8.6
2017-Sep-25 11:00N 32°02' W 091°04'4 8.1
2017-Sep-25 10:30N 32°06' W 091°06'2 4.6
2017-Sep-25 09:59N 32°08' W 091°04'3 6.1
2017-Sep-25 09:31N 32°08' W 091°01'4 8.5
2017-Sep-25 09:00N 32°12' W 090°59'4 8.6
2017-Sep-25 08:30N 32°16' W 090°58'4 8.4
2017-Sep-25 08:00N 32°19' W 090°54'3 6.0
2017-Sep-25 07:31N 32°21' W 090°57'3 5.6
2017-Sep-25 07:00N 32°22' W 091°00'4 7.4
2017-Sep-25 06:30N 32°25' W 091°01'4 8.4
2017-Sep-25 06:01N 32°27' W 091°05'4 7.4
2017-Sep-25 05:30N 32°31' W 091°07'4 7.9
2017-Sep-25 05:00N 32°35' W 091°07'4 8.1
2017-Sep-25 04:30N 32°38' W 091°09'  
2017-Sep-19 04:09N 31°57' W 091°11'1 8.5
2017-Sep-19 04:00N 31°58' W 091°11'4 8.3
2017-Sep-19 03:31N 31°59' W 091°06'4 8.4
2017-Sep-19 03:01N 32°03' W 091°03'4 8.1
2017-Sep-19 02:31N 32°06' W 091°06'3 5.1
2017-Sep-19 02:00N 32°08' W 091°03'3 6.9
2017-Sep-19 01:30N 32°10' W 091°00'5 9.8
2017-Sep-19 01:01N 32°14' W 090°59'4 7.7
2017-Sep-19 00:31N 32°17' W 090°56'3 6.8
2017-Sep-19 00:00N 32°20' W 090°55'4 8.1
2017-Sep-18 23:31N 32°21' W 090°59'4 7.4
2017-Sep-18 23:01N 32°25' W 090°60'4 8.3
2017-Sep-18 22:30N 32°27' W 091°04'4 7.8
2017-Sep-18 22:00N 32°30' W 091°07'4 8.5
2017-Sep-18 21:31N 32°34' W 091°06'4 8.3
2017-Sep-18 21:00N 32°37' W 091°09'0 0.0
2017-Sep-17 12:45N 32°37' W 091°09'1 5.0
2017-Sep-17 12:30N 32°36' W 091°08'2 4.8
2017-Sep-17 12:00N 32°34' W 091°07'2 4.3
2017-Sep-17 11:30N 32°32' W 091°06'3 5.5
2017-Sep-17 11:00N 32°30' W 091°07'3 5.0
2017-Sep-17 10:30N 32°28' W 091°06'2 4.9
2017-Sep-17 10:00N 32°26' W 091°03'3 5.1
2017-Sep-17 09:30N 32°25' W 091°00'2 4.2
2017-Sep-17 09:00N 32°23' W 090°60'2 4.2
2017-Sep-17 08:30N 32°21' W 090°60'3 5.0
2017-Sep-17 08:00N 32°21' W 090°57'3 5.1
2017-Sep-17 07:31N 32°20' W 090°54'3 5.2
2017-Sep-17 07:01N 32°18' W 090°56'4 7.1
2017-Sep-17 06:30N 32°15' W 090°58'2 4.3
2017-Sep-17 06:00N 32°13' W 090°59'2 4.7
2017-Sep-17 05:30N 32°11' W 090°60'2 4.5
2017-Sep-17 05:01N 32°09' W 091°00'2 4.4
2017-Sep-17 04:30N 32°07' W 091°02'2 3.5
2017-Sep-17 03:58N 32°08' W 091°04'2 3.2
2017-Sep-17 03:30N 32°08' W 091°06'5 4.1
2017-Sep-17 02:15N 32°03' W 091°03'2 5.4
2017-Sep-17 01:54N 32°02' W 091°04'  

Dump ship's entire track history